createdAt,value
2017-09-07T00:00:07.845Z,-4.13
2017-09-07T00:01:02.902Z,-4.13
2017-09-07T00:01:56.975Z,-4.13
2017-09-07T00:02:44.910Z,-4.13
2017-09-07T00:03:33.981Z,-4.13
2017-09-07T00:04:28.983Z,-4.13
2017-09-07T00:05:23.050Z,-4.13
2017-09-07T00:06:12.201Z,-4.13
2017-09-07T00:07:01.156Z,-4.13
2017-09-07T00:07:49.192Z,-4.13
2017-09-07T00:08:37.363Z,-4.13
2017-09-07T00:09:26.258Z,-4.13
2017-09-07T00:10:21.262Z,-4.13
2017-09-07T00:11:21.416Z,-4.13
2017-09-07T00:12:21.408Z,-4.13
2017-09-07T00:13:15.343Z,-4.13
2017-09-07T00:14:15.386Z,-4.13
2017-09-07T00:15:10.453Z,-4.13
2017-09-07T00:16:05.476Z,-4.13
2017-09-07T00:17:06.558Z,-4.13
2017-09-07T00:17:54.550Z,-4.13
2017-09-07T00:18:43.905Z,-4.13
2017-09-07T00:19:31.648Z,-4.13
2017-09-07T00:20:19.645Z,-4.13
2017-09-07T00:21:13.722Z,-4.13
2017-09-07T00:22:08.895Z,-4.13
2017-09-07T00:23:02.800Z,-4.13
2017-09-07T00:23:56.852Z,-4.13
2017-09-07T00:24:51.878Z,-4.13
2017-09-07T00:25:51.898Z,-4.13
2017-09-07T00:26:51.966Z,-4.13
2017-09-07T00:27:45.982Z,-4.13
2017-09-07T00:28:46.031Z,-4.13
2017-09-07T00:29:41.022Z,-4.13
2017-09-07T00:30:35.066Z,-4.13
2017-09-07T00:31:23.465Z,-4.13
2017-09-07T00:32:17.166Z,-4.13
2017-09-07T00:33:11.212Z,-4.13
2017-09-07T00:34:11.711Z,-4.13
2017-09-07T00:35:06.622Z,-4.13
2017-09-07T00:36:00.261Z,-4.13
2017-09-07T00:36:54.347Z,-4.13
2017-09-07T00:37:54.391Z,-4.13
2017-09-07T00:38:48.453Z,-4.13
2017-09-07T00:39:42.453Z,-4.13
2017-09-07T00:40:36.439Z,-4.13
2017-09-07T00:41:36.461Z,-4.13
2017-09-07T00:42:25.565Z,-4.13
2017-09-07T00:43:20.591Z,-4.13
2017-09-07T00:44:20.650Z,-4.13
2017-09-07T00:45:15.651Z,-4.13
2017-09-07T00:46:10.644Z,-4.13
2017-09-07T00:46:58.711Z,-4.13
2017-09-07T00:47:52.742Z,-4.13
2017-09-07T00:48:40.797Z,-4.13
2017-09-07T00:49:28.849Z,-4.13
2017-09-07T00:50:17.855Z,-4.13
2017-09-07T00:51:05.936Z,-4.13
2017-09-07T00:51:53.975Z,-4.13
2017-09-07T00:52:43.046Z,-4.13
2017-09-07T00:53:43.165Z,-4.13
2017-09-07T00:54:32.118Z,-4.13
2017-09-07T00:55:21.489Z,-4.13
2017-09-07T00:56:21.140Z,-4.13
2017-09-07T00:57:10.444Z,-4.13
2017-09-07T00:58:05.346Z,-4.13
2017-09-07T00:58:59.284Z,-4.13
2017-09-07T01:00:00.302Z,-4.13
2017-09-07T01:00:55.345Z,-4.13
2017-09-07T01:01:49.378Z,-4.13
2017-09-07T01:02:49.411Z,-4.13
2017-09-07T01:03:43.432Z,-4.13
2017-09-07T01:04:43.476Z,-4.13
2017-09-07T01:05:37.541Z,-4.13
2017-09-07T01:06:31.555Z,-4.13
2017-09-07T01:07:31.602Z,-4.13
2017-09-07T01:08:25.985Z,-4.13
2017-09-07T01:09:19.634Z,-4.13
2017-09-07T01:10:14.660Z,-4.13
2017-09-07T01:11:14.708Z,-4.13
2017-09-07T01:12:08.754Z,-4.13
2017-09-07T01:13:08.759Z,-4.13
2017-09-07T01:13:57.807Z,-4.13
2017-09-07T01:14:51.970Z,-4.13
2017-09-07T01:15:46.849Z,-4.13
2017-09-07T01:16:40.969Z,-4.13
2017-09-07T01:17:41.058Z,-4.13
2017-09-07T01:18:35.229Z,-4.13
2017-09-07T01:19:29.035Z,-4.13
2017-09-07T01:20:23.047Z,-4.13
2017-09-07T01:21:23.137Z,-4.13
2017-09-07T01:22:18.151Z,-4.13
2017-09-07T01:23:13.189Z,-4.12
2017-09-07T01:24:13.576Z,-4.12
2017-09-07T01:25:07.249Z,-4.12
2017-09-07T01:26:08.287Z,-4.12
2017-09-07T01:26:56.392Z,-4.12
2017-09-07T01:27:56.455Z,-4.12
2017-09-07T01:28:50.598Z,-4.12
2017-09-07T01:29:38.432Z,-4.12
2017-09-07T01:30:27.458Z,-4.12
2017-09-07T01:31:27.510Z,-4.12
2017-09-07T01:32:16.556Z,-4.12
2017-09-07T01:33:05.612Z,-4.12
2017-09-07T01:33:54.962Z,-4.13
2017-09-07T01:34:48.649Z,-4.13
2017-09-07T01:35:42.720Z,-4.13
2017-09-07T01:36:36.736Z,-4.13
2017-09-07T01:37:30.777Z,-4.13
2017-09-07T01:38:31.105Z,-4.13
2017-09-07T01:39:20.191Z,-4.13
2017-09-07T01:40:07.855Z,-4.12
2017-09-07T01:41:07.917Z,-4.12
2017-09-07T01:41:55.919Z,-4.12
2017-09-07T01:42:49.973Z,-4.12
2017-09-07T01:43:44.336Z,-4.12
2017-09-07T01:44:39.055Z,-4.12
2017-09-07T01:45:33.107Z,-4.12
2017-09-07T01:46:27.145Z,-4.12
2017-09-07T01:47:21.529Z,-4.12
2017-09-07T01:48:22.235Z,-4.12
2017-09-07T01:49:10.481Z,-4.12
2017-09-07T01:50:04.265Z,-4.12
2017-09-07T01:50:53.325Z,-4.12
2017-09-07T01:51:48.340Z,-4.12
2017-09-07T01:52:42.385Z,-4.12
2017-09-07T01:53:31.705Z,-4.12
2017-09-07T01:54:25.465Z,-4.12
2017-09-07T01:55:13.526Z,-4.12
2017-09-07T01:56:08.554Z,-4.12
2017-09-07T01:57:03.562Z,-4.12
2017-09-07T01:58:03.655Z,-4.12
2017-09-07T01:58:57.913Z,-4.12
2017-09-07T01:59:58.684Z,-4.12
2017-09-07T02:00:52.707Z,-4.12
2017-09-07T02:01:52.745Z,-4.12
2017-09-07T02:02:47.780Z,-4.12
2017-09-07T02:03:36.881Z,-4.12
2017-09-07T02:04:25.860Z,-4.12
2017-09-07T02:05:19.953Z,-4.12
2017-09-07T02:06:08.941Z,-4.12
2017-09-07T02:07:08.963Z,-4.12
2017-09-07T02:07:57.058Z,-4.12
2017-09-07T02:08:51.179Z,-4.12
2017-09-07T02:09:45.138Z,-4.12
2017-09-07T02:10:34.160Z,-4.12
2017-09-07T02:11:29.174Z,-4.12
2017-09-07T02:12:23.166Z,-4.12
2017-09-07T02:13:12.269Z,-4.12
2017-09-07T02:14:06.274Z,-4.12
2017-09-07T02:15:06.399Z,-4.12
2017-09-07T02:15:55.369Z,-4.12
2017-09-07T02:16:49.416Z,-4.12
2017-09-07T02:17:44.487Z,-4.12
2017-09-07T02:18:44.462Z,-4.12
2017-09-07T02:19:33.496Z,-4.12
2017-09-07T02:20:27.545Z,-4.12
2017-09-07T02:21:15.617Z,-4.12
2017-09-07T02:22:03.649Z,-4.12
2017-09-07T02:22:57.684Z,-4.12
2017-09-07T02:23:46.972Z,-4.12
2017-09-07T02:24:35.723Z,-4.12
2017-09-07T02:25:29.791Z,-4.12
2017-09-07T02:26:17.860Z,-4.12
2017-09-07T02:27:06.837Z,-4.12
2017-09-07T02:27:54.888Z,-4.12
2017-09-07T02:28:43.999Z,-4.12
2017-09-07T02:29:43.964Z,-4.12
2017-09-07T02:30:38.039Z,-4.12
2017-09-07T02:31:32.078Z,-4.12
2017-09-07T02:32:27.104Z,-4.12
2017-09-07T02:33:21.104Z,-4.12
2017-09-07T02:34:22.169Z,-4.12
2017-09-07T02:35:22.158Z,-4.12
2017-09-07T02:36:11.308Z,-4.12
2017-09-07T02:37:05.422Z,-4.12
2017-09-07T02:38:00.276Z,-4.12
2017-09-07T02:38:54.762Z,-4.12
2017-09-07T02:39:55.334Z,-4.12
2017-09-07T02:40:50.558Z,-4.12
2017-09-07T02:41:50.468Z,-4.12
2017-09-07T02:42:39.466Z,-4.12
2017-09-07T02:43:40.810Z,-4.12
2017-09-07T02:44:40.792Z,-4.12
2017-09-07T02:45:40.593Z,-4.12
2017-09-07T02:46:34.644Z,-4.12
2017-09-07T02:47:34.658Z,-4.12
2017-09-07T02:48:30.109Z,-4.12
2017-09-07T02:49:24.733Z,-4.12
2017-09-07T02:50:13.754Z,-4.12
2017-09-07T02:51:01.836Z,-4.12
2017-09-07T02:51:49.867Z,-4.12
2017-09-07T02:52:38.202Z,-4.12
2017-09-07T02:53:25.974Z,-4.12
2017-09-07T02:54:20.980Z,-4.12
2017-09-07T02:55:15.227Z,-4.12
2017-09-07T02:56:04.047Z,-4.12
2017-09-07T02:56:58.104Z,-4.12
2017-09-07T02:57:53.237Z,-4.12
2017-09-07T02:58:47.305Z,-4.12
2017-09-07T02:59:47.456Z,-4.12
2017-09-07T03:00:42.227Z,-4.12
2017-09-07T03:01:36.255Z,-4.12
2017-09-07T03:02:30.264Z,-4.12
2017-09-07T03:03:24.342Z,-4.12
2017-09-07T03:04:18.343Z,-4.12
2017-09-07T03:05:18.833Z,-4.12
2017-09-07T03:06:13.445Z,-4.12
2017-09-07T03:07:13.446Z,-4.12
2017-09-07T03:08:07.460Z,-4.12
2017-09-07T03:09:07.550Z,-4.12
2017-09-07T03:10:02.549Z,-4.12
2017-09-07T03:10:57.652Z,-4.12
2017-09-07T03:11:57.636Z,-4.12
2017-09-07T03:12:52.659Z,-4.13
2017-09-07T03:13:46.682Z,-4.13
2017-09-07T03:14:41.755Z,-4.13
2017-09-07T03:15:30.750Z,-4.13
2017-09-07T03:16:25.868Z,-4.13
2017-09-07T03:17:14.046Z,-4.13
2017-09-07T03:18:01.863Z,-4.13
2017-09-07T03:18:49.940Z,-4.13
2017-09-07T03:19:37.934Z,-4.13
2017-09-07T03:20:39.034Z,-4.13
2017-09-07T03:21:40.060Z,-4.13
2017-09-07T03:22:34.174Z,-4.13
2017-09-07T03:23:28.164Z,-4.13
2017-09-07T03:24:22.131Z,-4.13
2017-09-07T03:25:11.141Z,-4.13
2017-09-07T03:26:05.183Z,-4.13
2017-09-07T03:26:59.269Z,-4.13
2017-09-07T03:27:59.253Z,-4.13
2017-09-07T03:28:48.330Z,-4.13
2017-09-07T03:29:36.392Z,-4.12
2017-09-07T03:30:25.429Z,-4.12
2017-09-07T03:31:13.488Z,-4.12
2017-09-07T03:32:01.478Z,-4.12
2017-09-07T03:32:50.521Z,-4.12
2017-09-07T03:33:38.788Z,-4.12
2017-09-07T03:34:27.657Z,-4.12
2017-09-07T03:35:21.664Z,-4.12
2017-09-07T03:36:16.640Z,-4.12
2017-09-07T03:37:16.734Z,-4.12
2017-09-07T03:38:10.806Z,-4.12
2017-09-07T03:38:59.800Z,-4.12
2017-09-07T03:39:54.865Z,-4.12
2017-09-07T03:40:50.230Z,-4.12
2017-09-07T03:41:37.934Z,-4.12
2017-09-07T03:42:25.951Z,-4.12
2017-09-07T03:43:20.974Z,-4.12
2017-09-07T03:44:16.400Z,-4.12
2017-09-07T03:45:17.090Z,-4.12
2017-09-07T03:46:11.072Z,-4.12
2017-09-07T03:47:05.134Z,-4.12
2017-09-07T03:47:53.148Z,-4.12
2017-09-07T03:48:41.159Z,-4.12
2017-09-07T03:49:36.250Z,-4.12
2017-09-07T03:50:36.604Z,-4.12
2017-09-07T03:51:25.532Z,-4.12
2017-09-07T03:52:25.331Z,-4.12
2017-09-07T03:53:20.560Z,-4.12
2017-09-07T03:54:20.402Z,-4.12
2017-09-07T03:55:15.466Z,-4.12
2017-09-07T03:56:10.459Z,-4.12
2017-09-07T03:57:10.540Z,-4.12
2017-09-07T03:58:05.529Z,-4.12
2017-09-07T03:58:59.590Z,-4.12
2017-09-07T03:59:59.617Z,-4.12
2017-09-07T04:00:59.656Z,-4.12
2017-09-07T04:01:54.665Z,-4.12
2017-09-07T04:02:43.680Z,-4.12
2017-09-07T04:03:43.719Z,-4.12
2017-09-07T04:04:38.769Z,-4.12
2017-09-07T04:05:32.857Z,-4.12
2017-09-07T04:06:26.888Z,-4.12
2017-09-07T04:07:26.849Z,-4.12
2017-09-07T04:08:16.276Z,-4.12
2017-09-07T04:09:10.988Z,-4.12
2017-09-07T04:10:05.030Z,-4.12
2017-09-07T04:11:05.057Z,-4.12
2017-09-07T04:12:05.044Z,-4.12
2017-09-07T04:13:00.048Z,-4.12
2017-09-07T04:13:54.130Z,-4.12
2017-09-07T04:14:54.155Z,-4.12
2017-09-07T04:15:48.226Z,-4.12
2017-09-07T04:16:37.234Z,-4.12
2017-09-07T04:17:26.279Z,-4.12
2017-09-07T04:18:15.337Z,-4.12
2017-09-07T04:19:04.342Z,-4.12
2017-09-07T04:19:58.347Z,-4.12
2017-09-07T04:20:58.451Z,-4.12
2017-09-07T04:21:46.452Z,-4.12
2017-09-07T04:22:46.480Z,-4.12
2017-09-07T04:23:46.524Z,-4.12
2017-09-07T04:24:35.618Z,-4.12
2017-09-07T04:25:23.919Z,-4.12
2017-09-07T04:26:18.688Z,-4.12
2017-09-07T04:27:19.668Z,-4.12
2017-09-07T04:28:07.725Z,-4.12
2017-09-07T04:29:01.767Z,-4.12
2017-09-07T04:29:55.766Z,-4.12
2017-09-07T04:30:43.848Z,-4.12
2017-09-07T04:31:43.873Z,-4.12
2017-09-07T04:32:43.919Z,-4.12
2017-09-07T04:33:38.123Z,-4.12
2017-09-07T04:34:25.959Z,-4.12
2017-09-07T04:35:27.001Z,-4.12
2017-09-07T04:36:15.077Z,-4.12
2017-09-07T04:37:04.353Z,-4.12
2017-09-07T04:37:59.131Z,-4.12
2017-09-07T04:38:53.153Z,-4.12
2017-09-07T04:39:42.190Z,-4.12
2017-09-07T04:40:37.238Z,-4.12
2017-09-07T04:41:31.258Z,-4.12
2017-09-07T04:42:25.641Z,-4.12
2017-09-07T04:43:20.375Z,-4.12
2017-09-07T04:44:14.377Z,-4.12
2017-09-07T04:45:08.422Z,-4.12
2017-09-07T04:46:03.500Z,-4.12
2017-09-07T04:46:58.522Z,-4.12
2017-09-07T04:47:58.561Z,-4.12
2017-09-07T04:48:53.549Z,-4.12
2017-09-07T04:49:53.610Z,-4.12
2017-09-07T04:50:42.639Z,-4.12
2017-09-07T04:51:31.670Z,-4.12
2017-09-07T04:52:19.719Z,-4.12
2017-09-07T04:53:20.774Z,-4.12
2017-09-07T04:54:14.970Z,-4.12
2017-09-07T04:55:09.843Z,-4.12
2017-09-07T04:56:03.873Z,-4.12
2017-09-07T04:56:58.960Z,-4.12
2017-09-07T04:57:59.945Z,-4.12
2017-09-07T04:59:00.035Z,-4.12
2017-09-07T05:00:00.017Z,-4.12
2017-09-07T05:00:54.054Z,-4.12
2017-09-07T05:01:54.046Z,-4.12
2017-09-07T05:02:49.118Z,-4.12
2017-09-07T05:03:44.157Z,-4.12
2017-09-07T05:04:44.182Z,-4.12
2017-09-07T05:05:44.246Z,-4.12
2017-09-07T05:06:38.234Z,-4.12
2017-09-07T05:07:39.257Z,-4.12
2017-09-07T05:08:33.703Z,-4.12
2017-09-07T05:09:28.376Z,-4.12
2017-09-07T05:10:22.646Z,-4.12
2017-09-07T05:11:22.428Z,-4.12
2017-09-07T05:12:16.497Z,-4.12
2017-09-07T05:13:17.483Z,-4.12
2017-09-07T05:14:18.546Z,-4.12
2017-09-07T05:15:12.569Z,-4.12
2017-09-07T05:16:06.629Z,-4.12
2017-09-07T05:17:06.666Z,-4.12
2017-09-07T05:17:55.695Z,-4.12
2017-09-07T05:18:44.720Z,-4.12
2017-09-07T05:19:38.743Z,-4.12
2017-09-07T05:20:38.790Z,-4.12
2017-09-07T05:21:33.109Z,-4.12
2017-09-07T05:22:33.889Z,-4.12
2017-09-07T05:23:28.917Z,-4.12
2017-09-07T05:24:28.950Z,-4.12
2017-09-07T05:25:28.935Z,-4.12
2017-09-07T05:26:29.012Z,-4.12
2017-09-07T05:27:29.037Z,-4.12
2017-09-07T05:28:29.079Z,-4.12
2017-09-07T05:29:29.106Z,-4.12
2017-09-07T05:30:29.126Z,-4.12
2017-09-07T05:31:29.137Z,-4.12
2017-09-07T05:32:29.220Z,-4.12
2017-09-07T05:33:29.503Z,-4.12
2017-09-07T05:34:29.268Z,-4.12
2017-09-07T05:35:29.314Z,-4.12
2017-09-07T05:36:29.357Z,-4.12
2017-09-07T05:37:29.363Z,-4.12
2017-09-07T05:38:29.364Z,-4.12
2017-09-07T05:39:29.435Z,-4.12
2017-09-07T05:40:29.450Z,-4.12
2017-09-07T05:41:23.457Z,-4.12
2017-09-07T05:42:17.746Z,-4.12
2017-09-07T05:43:12.840Z,-4.12
2017-09-07T05:44:01.613Z,-4.12
2017-09-07T05:45:01.929Z,-4.12
2017-09-07T05:45:56.675Z,-4.12
2017-09-07T05:46:50.757Z,-4.12
2017-09-07T05:47:38.724Z,-4.12
2017-09-07T05:48:26.984Z,-4.12
2017-09-07T05:49:15.859Z,-4.12
2017-09-07T05:50:03.958Z,-4.12
2017-09-07T05:50:51.929Z,-4.12
2017-09-07T05:51:45.993Z,-4.12
2017-09-07T05:52:40.031Z,-4.12
2017-09-07T05:53:29.071Z,-4.12
2017-09-07T05:54:18.192Z,-4.12
2017-09-07T05:55:07.189Z,-4.12
2017-09-07T05:55:55.169Z,-4.12
2017-09-07T05:56:49.231Z,-4.12
2017-09-07T05:57:43.286Z,-4.12
2017-09-07T05:58:43.266Z,-4.12
2017-09-07T05:59:38.679Z,-4.12
2017-09-07T06:00:33.458Z,-4.12
2017-09-07T06:01:33.376Z,-4.12
2017-09-07T06:02:28.529Z,-4.12
2017-09-07T06:03:23.464Z,-4.12
2017-09-07T06:04:17.537Z,-4.11
2017-09-07T06:05:17.550Z,-4.11
2017-09-07T06:06:12.711Z,-4.11
2017-09-07T06:07:01.630Z,-4.11
2017-09-07T06:08:01.639Z,-4.11
2017-09-07T06:09:01.742Z,-4.11
2017-09-07T06:10:02.720Z,-4.11
2017-09-07T06:11:02.847Z,-4.11
2017-09-07T06:11:50.946Z,-4.11
2017-09-07T06:12:39.892Z,-4.11
2017-09-07T06:13:40.053Z,-4.11
2017-09-07T06:14:28.973Z,-4.11
2017-09-07T06:15:23.190Z,-4.11
2017-09-07T06:16:28.979Z,-4.11
2017-09-07T06:17:24.038Z,-4.11
2017-09-07T06:18:18.055Z,-4.11
2017-09-07T06:19:12.146Z,-4.11
2017-09-07T06:20:06.185Z,-4.11
2017-09-07T06:21:01.176Z,-4.11
2017-09-07T06:21:55.233Z,-4.11
2017-09-07T06:22:49.248Z,-4.11
2017-09-07T06:23:44.314Z,-4.11
2017-09-07T06:24:38.380Z,-4.11
2017-09-07T06:25:27.395Z,-4.11
2017-09-07T06:26:16.429Z,-4.11
2017-09-07T06:27:10.630Z,-4.11
2017-09-07T06:28:05.679Z,-4.11
2017-09-07T06:28:59.543Z,-4.11
2017-09-07T06:29:59.588Z,-4.11
2017-09-07T06:30:59.614Z,-4.11
2017-09-07T06:31:54.636Z,-4.11
2017-09-07T06:32:54.704Z,-4.11
2017-09-07T06:33:48.780Z,-4.11
2017-09-07T06:34:42.732Z,-4.11
2017-09-07T06:35:36.836Z,-4.11
2017-09-07T06:36:36.831Z,-4.11
2017-09-07T06:37:32.049Z,-4.11
2017-09-07T06:38:31.949Z,-4.10
2017-09-07T06:39:27.109Z,-4.10
2017-09-07T06:40:21.996Z,-4.10
2017-09-07T06:41:17.188Z,-4.10
2017-09-07T06:42:11.056Z,-4.10
2017-09-07T06:43:05.129Z,-4.10
2017-09-07T06:44:05.169Z,-4.10
2017-09-07T06:44:59.230Z,-4.10
2017-09-07T06:45:48.303Z,-4.10
2017-09-07T06:46:48.253Z,-4.10
2017-09-07T06:47:37.317Z,-4.10
2017-09-07T06:48:26.542Z,-4.10
2017-09-07T06:49:21.407Z,-4.10
2017-09-07T06:50:15.417Z,-4.10
2017-09-07T06:51:16.547Z,-4.10
2017-09-07T06:52:10.538Z,-4.10
2017-09-07T06:53:04.543Z,-4.10
2017-09-07T06:53:59.641Z,-4.10
2017-09-07T06:54:47.634Z,-4.10
2017-09-07T06:55:41.743Z,-4.10
2017-09-07T06:56:41.746Z,-4.10
2017-09-07T06:57:36.837Z,-4.10
2017-09-07T06:58:42.832Z,-4.10
2017-09-07T06:59:30.843Z,-4.10
2017-09-07T07:00:26.069Z,-4.10
2017-09-07T07:01:25.960Z,-4.10
2017-09-07T07:02:15.164Z,-4.10
2017-09-07T07:03:15.135Z,-4.10
2017-09-07T07:04:03.094Z,-4.10
2017-09-07T07:04:52.111Z,-4.10
2017-09-07T07:05:47.178Z,-4.10
2017-09-07T07:06:36.353Z,-4.10
2017-09-07T07:07:36.223Z,-4.10
2017-09-07T07:08:25.256Z,-4.10
2017-09-07T07:09:13.273Z,-4.10
2017-09-07T07:10:07.408Z,-4.10
2017-09-07T07:11:07.368Z,-4.10
2017-09-07T07:11:55.773Z,-4.10
2017-09-07T07:12:50.480Z,-4.10
2017-09-07T07:13:44.540Z,-4.10
2017-09-07T07:14:39.722Z,-4.10
2017-09-07T07:15:28.656Z,-4.10
2017-09-07T07:16:28.924Z,-4.10
2017-09-07T07:17:17.941Z,-4.10
2017-09-07T07:18:12.025Z,-4.10
2017-09-07T07:19:13.096Z,-4.10
2017-09-07T07:20:02.141Z,-4.10
2017-09-07T07:21:02.147Z,-4.10
2017-09-07T07:21:57.185Z,-4.10
2017-09-07T07:22:57.191Z,-4.10
2017-09-07T07:23:52.252Z,-4.10
2017-09-07T07:24:41.359Z,-4.10
2017-09-07T07:25:41.285Z,-4.10
2017-09-07T07:26:30.434Z,-4.10
2017-09-07T07:27:19.482Z,-4.09
2017-09-07T07:28:07.762Z,-4.09
2017-09-07T07:28:56.225Z,-4.09
2017-09-07T07:29:51.288Z,-4.09
2017-09-07T07:30:40.329Z,-4.09
2017-09-07T07:31:40.350Z,-4.09
2017-09-07T07:32:34.445Z,-4.09
2017-09-07T07:33:35.885Z,-4.10
2017-09-07T07:34:29.529Z,-4.10
2017-09-07T07:35:29.549Z,-4.10
2017-09-07T07:36:23.600Z,-4.10
2017-09-07T07:37:17.647Z,-4.10
2017-09-07T07:38:18.657Z,-4.11
2017-09-07T07:39:13.360Z,-4.11
2017-09-07T07:40:01.772Z,-4.10
2017-09-07T07:40:56.821Z,-4.10
2017-09-07T07:41:51.857Z,-4.10
2017-09-07T07:42:45.909Z,-4.10
2017-09-07T07:43:40.291Z,-4.11
2017-09-07T07:44:41.330Z,-4.11
2017-09-07T07:45:41.270Z,-4.10
2017-09-07T07:46:36.356Z,-4.10
2017-09-07T07:47:36.317Z,-4.10
2017-09-07T07:48:30.402Z,-4.10
2017-09-07T07:49:30.432Z,-4.11
2017-09-07T07:50:19.486Z,-4.10
2017-09-07T07:51:13.593Z,-4.10
2017-09-07T07:52:13.534Z,-4.11
2017-09-07T07:53:07.657Z,-4.11
2017-09-07T07:54:07.712Z,-4.11
2017-09-07T07:55:07.684Z,-4.10
2017-09-07T07:56:07.743Z,-4.10
2017-09-07T07:57:01.751Z,-4.10
2017-09-07T07:57:55.885Z,-4.11
2017-09-07T07:58:49.842Z,-4.11
2017-09-07T07:59:43.953Z,-4.10
2017-09-07T08:00:37.931Z,-4.10
2017-09-07T08:01:26.042Z,-4.11
2017-09-07T08:02:27.031Z,-4.11
2017-09-07T08:03:16.134Z,-4.11
2017-09-07T08:04:11.120Z,-4.11
2017-09-07T08:05:06.176Z,-4.11
2017-09-07T08:06:00.245Z,-4.11
2017-09-07T08:06:48.258Z,-4.11
2017-09-07T08:07:43.281Z,-4.11
2017-09-07T08:08:38.461Z,-4.11
2017-09-07T08:09:38.387Z,-4.11
2017-09-07T08:10:38.441Z,-4.11
2017-09-07T08:11:32.181Z,-4.11
2017-09-07T08:12:20.237Z,-4.11
2017-09-07T08:13:14.290Z,-4.11
2017-09-07T08:14:03.380Z,-4.11
2017-09-07T08:14:51.761Z,-4.11
2017-09-07T08:15:40.782Z,-4.11
2017-09-07T08:16:35.761Z,-4.11
2017-09-07T08:17:25.123Z,-4.11
2017-09-07T08:18:18.870Z,-4.11
2017-09-07T08:19:24.579Z,-4.11
2017-09-07T08:20:18.655Z,-4.11
2017-09-07T08:21:18.960Z,-4.11
2017-09-07T08:22:07.706Z,-4.11
2017-09-07T08:23:01.786Z,-4.11
2017-09-07T08:24:02.775Z,-4.11
2017-09-07T08:24:56.875Z,-4.11
2017-09-07T08:25:57.859Z,-4.10
2017-09-07T08:26:45.980Z,-4.10
2017-09-07T08:27:35.254Z,-4.10
2017-09-07T08:28:35.293Z,-4.11
2017-09-07T08:29:24.384Z,-4.11
2017-09-07T08:30:19.433Z,-4.11
2017-09-07T08:31:13.412Z,-4.11
2017-09-07T08:32:07.481Z,-4.11
2017-09-07T08:33:07.491Z,-4.11
2017-09-07T08:34:01.775Z,-4.11
2017-09-07T08:35:01.602Z,-4.10
2017-09-07T08:35:55.611Z,-4.10
2017-09-07T08:36:49.756Z,-4.11
2017-09-07T08:37:44.757Z,-4.11
2017-09-07T08:38:39.884Z,-4.11
2017-09-07T08:39:28.850Z,-4.11
2017-09-07T08:40:16.974Z,-4.11
2017-09-07T08:41:16.953Z,-4.11
2017-09-07T08:42:11.058Z,-4.11
2017-09-07T08:43:05.740Z,-4.11
2017-09-07T08:43:54.840Z,-4.11
2017-09-07T08:44:54.863Z,-4.11
2017-09-07T08:45:43.898Z,-4.11
2017-09-07T08:46:45.031Z,-4.11
2017-09-07T08:47:38.976Z,-4.11
2017-09-07T08:48:28.076Z,-4.11
2017-09-07T08:49:23.072Z,-4.11
2017-09-07T08:50:17.169Z,-4.11
2017-09-07T08:51:17.152Z,-4.11
2017-09-07T08:52:12.547Z,-4.11
2017-09-07T08:53:06.513Z,-4.11
2017-09-07T08:53:55.379Z,-4.11
2017-09-07T08:54:44.337Z,-4.11
2017-09-07T08:55:39.564Z,-4.11
2017-09-07T08:56:33.614Z,-4.11
2017-09-07T08:57:33.512Z,-4.11
2017-09-07T08:58:22.872Z,-4.11
2017-09-07T08:59:16.906Z,-4.11
2017-09-07T09:00:10.659Z,-4.11
2017-09-07T09:01:05.691Z,-4.11
2017-09-07T09:02:05.763Z,-4.11
2017-09-07T09:02:54.812Z,-4.11
2017-09-07T09:03:48.846Z,-4.11
2017-09-07T09:04:42.842Z,-4.11
2017-09-07T09:05:30.980Z,-4.11
2017-09-07T09:06:19.379Z,-4.11
2017-09-07T09:07:19.130Z,-4.10
2017-09-07T09:08:13.220Z,-4.10
2017-09-07T09:09:07.164Z,-4.10
2017-09-07T09:10:01.179Z,-4.08
2017-09-07T09:11:02.332Z,-4.09
2017-09-07T09:12:03.444Z,-4.09
2017-09-07T09:12:57.607Z,-4.09
2017-09-07T09:13:46.667Z,-4.09
2017-09-07T09:14:41.635Z,-4.09
2017-09-07T09:15:30.748Z,-4.08
2017-09-07T09:16:24.892Z,-4.08
2017-09-07T09:17:20.092Z,-4.08
2017-09-07T09:18:14.886Z,-4.08
2017-09-07T09:19:03.883Z,-4.06
2017-09-07T09:19:59.032Z,-4.06
2017-09-07T09:20:48.077Z,-4.06
2017-09-07T09:21:42.111Z,-4.06
2017-09-07T09:22:37.493Z,-4.05
2017-09-07T09:23:32.121Z,-4.05
2017-09-07T09:24:26.954Z,-4.05
2017-09-07T09:25:16.121Z,-4.05
2017-09-07T09:26:04.408Z,-4.05
2017-09-07T09:26:58.440Z,-4.05
2017-09-07T09:27:47.768Z,-4.04
2017-09-07T09:28:41.684Z,-4.04
2017-09-07T09:29:36.545Z,-4.04
2017-09-07T09:30:30.678Z,-4.05
2017-09-07T09:31:18.721Z,-4.05
2017-09-07T09:32:13.736Z,-4.05
2017-09-07T09:33:02.844Z,-4.04
2017-09-07T09:33:51.859Z,-4.05
2017-09-07T09:34:40.938Z,-4.05
2017-09-07T09:35:35.002Z,-4.05
2017-09-07T09:36:29.091Z,-4.05
2017-09-07T09:37:23.077Z,-4.05
2017-09-07T09:38:17.174Z,-4.05
2017-09-07T09:39:11.193Z,-4.05
2017-09-07T09:40:06.218Z,-4.05
2017-09-07T09:41:01.273Z,-4.05
2017-09-07T09:42:01.345Z,-4.05
2017-09-07T09:42:56.402Z,-4.06
2017-09-07T09:43:51.491Z,-4.06
2017-09-07T09:44:51.482Z,-4.06
2017-09-07T09:45:40.582Z,-4.06
2017-09-07T09:46:34.507Z,-4.06
2017-09-07T09:47:29.389Z,-4.06
2017-09-07T09:48:29.566Z,-4.06
2017-09-07T09:49:23.634Z,-4.05
2017-09-07T09:50:18.661Z,-4.05
2017-09-07T09:51:18.811Z,-4.05
2017-09-07T09:52:13.972Z,-4.05
2017-09-07T09:53:13.836Z,-4.05
2017-09-07T09:54:07.786Z,-4.05
2017-09-07T09:55:01.795Z,-4.06
2017-09-07T09:56:01.831Z,-4.06
2017-09-07T09:56:56.215Z,-4.06
2017-09-07T09:57:45.054Z,-4.06
2017-09-07T09:58:39.391Z,-4.06
2017-09-07T09:59:28.012Z,-4.06
2017-09-07T10:00:22.072Z,-4.06
2017-09-07T10:01:23.170Z,-4.06
2017-09-07T10:02:17.526Z,-4.06
2017-09-07T10:03:06.455Z,-4.06
2017-09-07T10:04:00.554Z,-4.06
2017-09-07T10:04:49.331Z,-4.06
2017-09-07T10:05:43.579Z,-4.05
2017-09-07T10:06:31.658Z,-4.06
2017-09-07T10:07:32.800Z,-4.06
2017-09-07T10:08:20.902Z,-4.06
2017-09-07T10:09:14.820Z,-4.06
2017-09-07T10:10:09.652Z,-4.07
2017-09-07T10:11:05.087Z,-4.07
2017-09-07T10:11:59.737Z,-4.07
2017-09-07T10:12:54.127Z,-4.07
2017-09-07T10:13:49.184Z,-4.08
2017-09-07T10:14:49.862Z,-4.08
2017-09-07T10:15:43.942Z,-4.08
2017-09-07T10:16:32.350Z,-4.08
2017-09-07T10:17:33.379Z,-4.07
2017-09-07T10:18:28.123Z,-4.07
2017-09-07T10:19:22.152Z,-4.08
2017-09-07T10:20:16.373Z,-4.08
2017-09-07T10:21:16.259Z,-4.08
2017-09-07T10:22:10.329Z,-4.07
2017-09-07T10:23:04.338Z,-4.07
2017-09-07T10:23:58.402Z,-4.08
2017-09-07T10:24:52.467Z,-4.07
2017-09-07T10:25:40.465Z,-4.07
2017-09-07T10:26:28.814Z,-4.07
2017-09-07T10:27:22.964Z,-4.07
2017-09-07T10:28:17.006Z,-4.07
2017-09-07T10:29:05.024Z,-4.07
2017-09-07T10:29:59.096Z,-4.07
2017-09-07T10:30:52.776Z,-4.07
2017-09-07T10:31:41.830Z,-4.08
2017-09-07T10:32:30.922Z,-4.08
2017-09-07T10:33:31.108Z,-4.08
2017-09-07T10:34:24.970Z,-4.08
2017-09-07T10:35:14.034Z,-4.08
2017-09-07T10:36:03.072Z,-4.09
2017-09-07T10:36:52.508Z,-4.09
2017-09-07T10:37:47.370Z,-4.09
2017-09-07T10:38:47.442Z,-4.09
2017-09-07T10:39:36.357Z,-4.10
2017-09-07T10:40:30.350Z,-4.10
2017-09-07T10:41:24.403Z,-4.09
2017-09-07T10:42:13.636Z,-4.10
2017-09-07T10:43:13.657Z,-4.10
2017-09-07T10:44:13.770Z,-4.09
2017-09-07T10:45:02.827Z,-4.09
2017-09-07T10:45:51.902Z,-4.09
2017-09-07T10:46:46.006Z,-4.09
2017-09-07T10:47:40.730Z,-4.10
2017-09-07T10:48:35.777Z,-4.09
2017-09-07T10:49:29.860Z,-4.09
2017-09-07T10:50:24.864Z,-4.09
2017-09-07T10:51:19.906Z,-4.09
2017-09-07T10:52:19.937Z,-4.10
2017-09-07T10:53:08.980Z,-4.10
2017-09-07T10:54:03.098Z,-4.11
2017-09-07T10:55:04.054Z,-4.10
2017-09-07T10:55:59.300Z,-4.11
2017-09-07T10:56:48.220Z,-4.10
2017-09-07T10:57:48.171Z,-4.10
2017-09-07T10:58:48.192Z,-4.11
2017-09-07T10:59:48.427Z,-4.11
2017-09-07T11:00:42.329Z,-4.11
2017-09-07T11:01:30.364Z,-4.11
2017-09-07T11:02:24.648Z,-4.10
2017-09-07T11:03:18.465Z,-4.11
2017-09-07T11:04:07.734Z,-4.11
2017-09-07T11:05:07.837Z,-4.11
2017-09-07T11:06:02.899Z,-4.11
2017-09-07T11:06:51.715Z,-4.10
2017-09-07T11:07:45.999Z,-4.10
2017-09-07T11:08:33.744Z,-4.11
2017-09-07T11:09:28.765Z,-4.11
2017-09-07T11:10:29.127Z,-4.10
2017-09-07T11:11:23.903Z,-4.10
2017-09-07T11:12:18.923Z,-4.09
2017-09-07T11:13:06.959Z,-4.09
2017-09-07T11:14:00.962Z,-4.09
2017-09-07T11:14:49.048Z,-4.09
2017-09-07T11:15:38.566Z,-4.08
2017-09-07T11:16:38.199Z,-4.08
2017-09-07T11:17:27.184Z,-4.07
2017-09-07T11:18:15.229Z,-4.07
2017-09-07T11:19:10.451Z,-4.07
2017-09-07T11:20:05.477Z,-4.07
2017-09-07T11:20:59.396Z,-4.07
2017-09-07T11:21:53.600Z,-4.06
2017-09-07T11:22:47.619Z,-4.06
2017-09-07T11:23:41.963Z,-4.06
2017-09-07T11:24:41.790Z,-4.06
2017-09-07T11:25:30.972Z,-4.06
2017-09-07T11:26:24.989Z,-4.05
2017-09-07T11:27:19.021Z,8.19
2017-09-07T11:28:13.089Z,10.87
2017-09-07T11:29:07.755Z,0.97
2017-09-07T11:30:01.840Z,-0.14
2017-09-07T11:30:55.877Z,2.39
2017-09-07T11:31:44.982Z,14.36
2017-09-07T11:32:40.001Z,31.43
2017-09-07T11:33:40.059Z,15.35
2017-09-07T11:34:35.321Z,14.62
2017-09-07T11:35:30.444Z,32.75
2017-09-07T11:36:25.484Z,37.35
2017-09-07T11:37:25.564Z,40.33
2017-09-07T11:38:14.570Z,39.27
2017-09-07T11:39:14.664Z,39.64